createdAt,value
2023-04-29T00:02:41.399Z,1010.7
2023-04-29T00:32:41.304Z,1010.56
2023-04-29T01:02:41.314Z,1010.56
2023-04-29T01:32:41.405Z,1010.65
2023-04-29T02:02:41.341Z,1010.7
2023-04-29T02:32:41.319Z,1010.66
2023-04-29T03:02:41.460Z,1010.66
2023-04-29T03:32:41.371Z,1010.78
2023-04-29T04:02:41.446Z,1010.93
2023-04-29T04:32:41.376Z,1011.2
2023-04-29T05:02:41.404Z,1011.41
2023-04-29T05:32:41.334Z,1011.54
2023-04-29T06:02:54.856Z,1011.75
2023-04-29T06:32:41.373Z,1012.11
2023-04-29T07:02:41.388Z,1012.32
2023-04-29T07:32:41.375Z,1012.55
2023-04-29T08:02:41.396Z,1012.68
2023-04-29T08:32:41.361Z,1013.05
2023-04-29T09:02:41.425Z,1013.38
2023-04-29T09:32:41.388Z,1013.64
2023-04-29T10:02:41.402Z,1013.72
2023-04-29T10:32:50.301Z,1013.98
2023-04-29T11:02:41.430Z,1013.81
2023-04-29T11:32:41.553Z,1013.91
2023-04-29T12:02:41.454Z,1014.18
2023-04-29T12:32:41.459Z,1014.34
2023-04-29T13:02:41.774Z,1014.45
2023-04-29T13:32:46.261Z,1014.4
2023-04-29T14:02:41.606Z,1014.54
2023-04-29T14:32:41.479Z,1014.71
2023-04-29T15:02:41.459Z,1014.94
2023-04-29T15:32:41.418Z,1015.02
2023-04-29T16:02:41.465Z,1015.39
2023-04-29T16:32:41.457Z,1015.71
2023-04-29T17:02:41.437Z,1015.93
2023-04-29T17:32:41.435Z,1016.16
2023-04-29T18:02:41.479Z,1016.36
2023-04-29T18:32:41.479Z,1016.64
2023-04-29T19:02:41.487Z,1016.98
2023-04-29T19:32:41.517Z,1017.23
2023-04-29T20:02:41.685Z,1017.36
2023-04-29T20:32:41.499Z,1017.44
2023-04-29T21:02:41.508Z,1017.62
2023-04-29T21:32:41.544Z,1017.85
2023-04-29T22:02:41.633Z,1017.9
2023-04-29T22:32:41.484Z,1018.13
2023-04-29T23:02:41.520Z,1018.18
2023-04-29T23:32:41.826Z,1018.18
